createdAt,value
2019-06-10T07:47:53.085Z,3.10
2019-06-10T07:55:06.003Z,3.40
2019-06-10T07:56:20.073Z,3.10
2019-06-10T07:57:37.737Z,2.80
2019-06-10T07:59:33.863Z,3.40
2019-06-10T08:00:48.456Z,2.90
2019-06-10T08:02:15.464Z,3.00
2019-06-10T08:03:27.836Z,3.00
2019-06-10T08:04:42.237Z,2.90
2019-06-10T08:05:58.497Z,2.70
2019-06-10T08:07:13.674Z,2.80
2019-06-10T08:08:25.976Z,2.70
2019-06-10T08:09:44.271Z,2.50
2019-06-10T08:11:03.048Z,3.00
2019-06-10T08:12:18.313Z,3.00
2019-06-10T08:13:32.700Z,2.80
2019-06-10T08:14:50.076Z,2.60
2019-06-10T08:16:06.969Z,2.60
2019-06-10T08:17:19.322Z,2.30
2019-06-10T08:18:41.060Z,2.50
2019-06-10T08:20:34.851Z,1.90
2019-06-10T08:21:49.270Z,2.10
2019-06-10T08:23:17.919Z,2.10
2019-06-10T08:24:33.452Z,2.30
2019-06-10T08:25:49.167Z,2.30
2019-06-10T08:27:09.388Z,2.10
2019-06-10T08:28:24.223Z,2.40
2019-06-10T08:29:36.715Z,2.00
2019-06-10T08:30:49.140Z,2.40
2019-06-10T08:32:10.251Z,2.10
2019-06-10T08:33:25.255Z,2.40
2019-06-10T08:34:37.969Z,2.20
2019-06-10T08:36:15.366Z,1.80
2019-06-10T08:37:27.735Z,1.90
2019-06-10T08:38:40.311Z,1.90
2019-06-10T08:39:58.980Z,2.10
2019-06-10T08:41:18.996Z,2.00
2019-06-10T08:42:33.149Z,1.90
2019-06-10T08:43:48.104Z,1.70
2019-06-10T08:45:08.923Z,1.70
2019-06-10T08:46:23.393Z,2.10
2019-06-10T08:47:36.756Z,1.50
2019-06-10T08:48:49.580Z,1.70
2019-06-10T08:50:09.569Z,2.00
2019-06-10T08:51:24.740Z,1.90
2019-06-10T08:52:53.568Z,1.90
2019-06-10T08:54:26.566Z,1.90
2019-06-10T08:55:39.662Z,1.90
2019-06-10T08:56:56.113Z,1.70
2019-06-10T08:58:14.530Z,1.80
2019-06-10T08:59:26.867Z,2.30
2019-06-10T09:00:45.151Z,1.80
2019-06-10T09:02:12.480Z,1.70
2019-06-10T09:03:25.023Z,2.00
2019-06-10T09:04:38.728Z,2.20
2019-06-10T09:05:54.101Z,2.40
2019-06-10T09:07:14.317Z,2.20
2019-06-10T09:08:26.594Z,2.10
2019-06-10T09:09:39.206Z,1.90
2019-06-10T09:10:55.305Z,2.60
2019-06-10T09:12:28.592Z,3.80
2019-06-10T09:13:50.055Z,6.10
2019-06-10T09:15:13.006Z,8.60
2019-06-10T09:16:39.961Z,16.80
2019-06-10T09:18:10.057Z,30.70
2019-06-10T09:19:23.010Z,21.00
2019-06-10T09:20:35.451Z,26.40
2019-06-10T09:21:49.689Z,17.70
2019-06-10T09:23:43.093Z,14.10
2019-06-10T09:25:07.615Z,14.80
2019-06-10T09:26:24.398Z,14.00
2019-06-10T09:27:36.781Z,11.90
2019-06-10T09:28:52.830Z,12.60
2019-06-10T09:30:15.909Z,10.90
2019-06-10T09:31:29.678Z,10.70
2019-06-10T09:32:48.263Z,10.40
2019-06-10T09:34:17.120Z,7.90
2019-06-10T09:35:29.478Z,8.50
2019-06-10T09:36:51.746Z,7.00
2019-06-10T09:38:16.110Z,6.60
2019-06-10T09:39:28.977Z,7.10
2019-06-10T09:40:45.767Z,5.80
2019-06-10T09:42:23.425Z,5.20
2019-06-10T09:43:36.441Z,6.00
2019-06-10T09:44:50.342Z,5.50
2019-06-10T09:46:16.087Z,5.50
2019-06-10T09:47:33.546Z,4.60
2019-06-10T09:48:49.715Z,4.20
2019-06-10T09:50:16.410Z,4.30
2019-06-10T09:51:57.410Z,3.90
2019-06-10T09:53:30.033Z,3.80
2019-06-10T09:54:56.649Z,3.70
2019-06-10T09:56:15.923Z,3.80
2019-06-10T09:57:33.415Z,3.00
2019-06-10T09:58:48.040Z,3.50
2019-06-10T10:00:14.473Z,3.70
2019-06-10T10:04:37.704Z,3.00
2019-06-10T10:05:59.072Z,2.90
2019-06-10T10:07:27.099Z,3.90
2019-06-10T10:08:41.271Z,3.40
2019-06-10T10:10:12.831Z,2.40
2019-06-10T10:11:50.438Z,2.60
2019-06-10T10:13:16.427Z,3.50
2019-06-10T10:14:36.252Z,2.80
2019-06-10T10:15:55.136Z,2.60
2019-06-10T10:17:22.980Z,2.80
2019-06-10T10:18:38.023Z,3.30
2019-06-10T10:19:53.789Z,3.80
2019-06-10T10:21:18.837Z,3.40
2019-06-10T10:22:34.600Z,3.50
2019-06-10T10:24:17.271Z,3.10
2019-06-10T10:25:29.626Z,2.80
2019-06-10T10:26:48.404Z,2.80
2019-06-10T10:28:13.376Z,2.70
2019-06-10T10:29:25.901Z,2.90
2019-06-10T10:30:38.157Z,3.70
2019-06-10T10:31:54.036Z,3.00
2019-06-10T10:33:12.779Z,3.80
2019-06-10T10:34:25.448Z,3.10
2019-06-10T10:35:42.657Z,3.20
2019-06-10T10:37:03.322Z,3.50
2019-06-10T10:38:16.533Z,3.30
2019-06-10T10:39:32.695Z,3.00
2019-06-10T10:40:47.386Z,3.90
2019-06-10T10:42:08.826Z,2.80
2019-06-10T10:43:57.720Z,3.40
2019-06-10T10:45:19.686Z,3.90
2019-06-10T10:46:37.622Z,4.00
2019-06-10T10:47:56.645Z,3.70
2019-06-10T10:49:09.902Z,3.70
2019-06-10T10:50:23.614Z,3.40
2019-06-10T10:51:38.673Z,3.40
2019-06-10T10:52:53.909Z,3.50
2019-06-10T10:54:39.386Z,3.30
2019-06-10T10:55:54.140Z,3.00
2019-06-10T10:57:13.164Z,3.10
2019-06-10T10:58:28.136Z,3.00
2019-06-10T10:59:43.572Z,3.00
2019-06-10T11:01:03.973Z,3.20
2019-06-10T11:02:17.411Z,2.70
2019-06-10T11:03:29.785Z,2.90
2019-06-10T11:04:46.191Z,2.80
2019-06-10T11:06:00.973Z,2.70
2019-06-10T11:07:22.265Z,2.80
2019-06-10T11:08:35.053Z,2.90
2019-06-10T11:09:48.531Z,2.60
2019-06-10T11:11:13.381Z,2.60
2019-06-10T11:12:26.425Z,2.50
2019-06-10T11:13:43.321Z,2.80
2019-06-10T11:15:01.872Z,2.90
2019-06-10T11:16:19.245Z,2.70
2019-06-10T11:17:33.611Z,3.20
2019-06-10T11:18:49.296Z,3.40
2019-06-10T11:20:03.789Z,3.30
2019-06-10T11:21:18.473Z,2.90
2019-06-10T11:22:33.322Z,3.30
2019-06-10T11:23:46.197Z,2.90
2019-06-10T11:25:06.652Z,2.70
2019-06-10T11:26:19.800Z,3.10
2019-06-10T11:27:33.519Z,3.20
2019-06-10T11:28:45.870Z,2.70
2019-06-10T11:30:02.300Z,3.30
2019-06-10T11:31:19.218Z,3.30
2019-06-10T11:32:32.742Z,2.70
2019-06-10T11:33:46.842Z,3.30
2019-06-10T11:35:04.204Z,3.00
2019-06-10T11:36:23.663Z,2.90
2019-06-10T11:37:35.899Z,2.90
2019-06-10T11:38:48.559Z,3.60
2019-06-10T11:40:02.820Z,3.30
2019-06-10T11:41:23.468Z,2.70
2019-06-10T11:42:44.009Z,2.70
2019-06-10T11:43:57.995Z,3.00
2019-06-10T11:45:18.407Z,2.70
2019-06-10T11:46:34.700Z,2.70
2019-06-10T11:47:49.790Z,2.80
2019-06-10T11:49:07.734Z,2.90
2019-06-10T11:50:22.618Z,2.50
2019-06-10T11:51:36.424Z,2.90
2019-06-10T11:52:49.602Z,3.80
2019-06-10T11:54:13.025Z,3.10
2019-06-10T11:55:39.749Z,2.90
2019-06-10T11:56:56.729Z,3.40
2019-06-10T11:58:18.616Z,2.90
2019-06-10T11:59:34.122Z,3.60
2019-06-10T12:00:46.480Z,2.90
2019-06-10T12:02:57.185Z,3.30
2019-06-10T12:04:19.803Z,2.90
2019-06-10T12:05:33.798Z,2.70
2019-06-10T12:06:46.933Z,2.60
2019-06-10T12:08:01.286Z,2.60
2019-06-10T12:09:23.344Z,2.50
2019-06-10T12:10:35.815Z,2.90
2019-06-10T12:11:49.110Z,2.40
2019-06-10T12:13:07.051Z,2.70
2019-06-10T12:14:27.153Z,2.90
2019-06-10T12:16:13.707Z,2.40
2019-06-10T12:18:30.228Z,2.20
2019-06-10T12:19:45.368Z,2.10
2019-06-10T12:21:00.246Z,2.50
2019-06-10T12:22:27.439Z,2.20
2019-06-10T12:23:44.783Z,2.40
2019-06-10T12:25:24.778Z,2.20
2019-06-10T12:26:49.787Z,2.40
2019-06-10T12:28:07.115Z,1.90
2019-06-10T12:29:26.406Z,2.30
2019-06-10T12:30:38.752Z,2.40
2019-06-10T12:31:58.345Z,2.40
2019-06-10T12:33:25.773Z,2.10
2019-06-10T12:34:38.241Z,2.10
2019-06-10T12:35:51.596Z,2.00
2019-06-10T12:37:18.849Z,2.40
2019-06-10T12:38:34.439Z,1.90
2019-06-10T12:39:46.765Z,2.30
2019-06-10T12:41:01.777Z,2.40
2019-06-10T12:42:27.377Z,2.20
2019-06-10T12:43:39.728Z,2.00
2019-06-10T12:44:57.178Z,2.30
2019-06-10T12:46:17.717Z,2.30
2019-06-10T12:47:33.235Z,2.10
2019-06-10T12:48:46.227Z,2.20
2019-06-10T12:49:59.109Z,2.10
2019-06-10T12:51:22.152Z,1.80
2019-06-10T12:52:35.094Z,2.40
2019-06-10T12:53:47.443Z,1.90
2019-06-10T12:55:09.891Z,2.00
2019-06-10T12:56:35.019Z,2.20
2019-06-10T12:57:54.358Z,2.30
2019-06-10T12:59:09.912Z,2.30
2019-06-10T13:00:43.587Z,2.40
2019-06-10T13:02:06.610Z,2.00
2019-06-10T13:03:33.925Z,2.20
2019-06-10T13:04:46.651Z,1.80
2019-06-10T13:06:07.140Z,2.10
2019-06-10T13:07:28.075Z,2.20
2019-06-10T13:08:44.931Z,2.00
2019-06-10T13:09:59.709Z,2.30
2019-06-10T13:11:18.237Z,2.20
2019-06-10T13:12:33.758Z,2.40
2019-06-10T13:13:48.633Z,2.30
2019-06-10T13:15:06.953Z,2.50
2019-06-10T13:16:28.971Z,2.30
2019-06-10T13:17:43.926Z,2.10
2019-06-10T13:18:57.889Z,2.10
2019-06-10T13:20:13.397Z,2.10
2019-06-10T13:21:38.075Z,1.90
2019-06-10T13:22:52.884Z,2.40
2019-06-10T13:24:05.469Z,2.20
2019-06-10T13:25:19.338Z,2.00
2019-06-10T13:26:38.600Z,2.10
2019-06-10T13:27:52.663Z,1.90
2019-06-10T13:29:09.786Z,1.90
2019-06-10T13:31:32.861Z,2.10
2019-06-10T13:32:46.187Z,2.30
2019-06-10T13:34:03.276Z,2.20
2019-06-10T13:35:26.325Z,1.90
2019-06-10T13:36:38.696Z,2.00
2019-06-10T13:37:52.918Z,2.50
2019-06-10T13:39:09.842Z,2.10
2019-06-10T13:40:31.956Z,2.80
2019-06-10T13:41:44.442Z,2.30
2019-06-10T13:42:57.725Z,2.00
2019-06-10T13:44:12.492Z,2.30
2019-06-10T13:45:33.200Z,2.50
2019-06-10T13:47:39.068Z,2.40
2019-06-10T13:48:52.856Z,2.70
2019-06-10T13:50:08.092Z,2.50
2019-06-10T13:51:35.561Z,2.40
2019-06-10T13:52:53.315Z,2.50
2019-06-10T13:54:09.228Z,2.40
2019-06-10T13:55:32.813Z,2.90
2019-06-10T13:57:09.561Z,2.60
2019-06-10T13:58:34.933Z,2.60
2019-06-10T13:59:47.275Z,2.40
2019-06-10T14:01:09.920Z,2.50
2019-06-10T14:02:36.390Z,2.30
2019-06-10T14:03:53.967Z,2.40
2019-06-10T14:05:18.383Z,2.50
2019-06-10T14:07:10.189Z,2.30
2019-06-10T14:08:35.477Z,2.60
2019-06-10T14:09:47.823Z,2.00
2019-06-10T14:11:01.318Z,2.50
2019-06-10T14:12:23.167Z,2.10
2019-06-10T14:13:44.226Z,1.90
2019-06-10T14:14:59.158Z,2.70
2019-06-10T14:16:15.212Z,2.30
2019-06-10T14:17:28.279Z,2.60
2019-06-10T14:18:42.353Z,2.80
2019-06-10T14:19:54.809Z,2.60
2019-06-10T14:21:09.559Z,2.30
2019-06-10T14:22:36.998Z,2.10
2019-06-10T14:23:49.335Z,2.50
2019-06-10T14:25:06.495Z,2.60
2019-06-10T14:26:37.718Z,2.10
2019-06-10T14:27:57.439Z,2.40
2019-06-10T14:29:12.467Z,2.50
2019-06-10T14:30:36.087Z,2.30
2019-06-10T14:32:05.777Z,2.60
2019-06-10T14:33:19.530Z,2.50
2019-06-10T14:34:39.161Z,2.30
2019-06-10T14:35:53.818Z,2.30
2019-06-10T14:37:06.049Z,2.20
2019-06-10T14:38:18.417Z,2.50
2019-06-10T14:39:36.800Z,2.80
2019-06-10T14:40:49.086Z,2.40
2019-06-10T14:42:06.901Z,2.50
2019-06-10T14:43:23.102Z,3.00
2019-06-10T14:44:38.621Z,2.90
2019-06-10T14:45:53.555Z,2.30
2019-06-10T14:47:06.574Z,2.10
2019-06-10T14:48:25.635Z,2.40
2019-06-10T14:49:37.965Z,2.20
2019-06-10T14:50:50.329Z,2.20
2019-06-10T14:52:04.928Z,2.70
2019-06-10T14:53:17.350Z,2.60
2019-06-10T14:55:23.455Z,2.50
2019-06-10T14:56:50.425Z,2.20
2019-06-10T14:58:09.570Z,2.40
2019-06-10T14:59:38.615Z,2.30
2019-06-10T15:00:54.736Z,3.10
2019-06-10T15:02:07.759Z,2.40
2019-06-10T15:03:27.519Z,2.40
2019-06-10T15:04:42.974Z,2.40
2019-06-10T15:05:55.232Z,2.00
2019-06-10T15:07:07.595Z,2.70
2019-06-10T15:08:23.935Z,2.30
2019-06-10T15:09:36.513Z,2.30
2019-06-10T15:10:48.848Z,2.50
2019-06-10T15:12:03.435Z,2.00
2019-06-10T15:13:16.116Z,1.70
2019-06-10T15:14:28.570Z,2.20
2019-06-10T15:15:44.291Z,2.20
2019-06-10T15:16:56.549Z,2.00
2019-06-10T15:18:16.479Z,3.80
2019-06-10T15:19:48.430Z,3.00
2019-06-10T15:21:03.519Z,3.40
2019-06-10T15:22:17.001Z,3.70
2019-06-10T15:23:39.122Z,3.60
2019-06-10T15:24:54.173Z,3.20
2019-06-10T15:26:17.732Z,3.60
2019-06-10T15:27:45.194Z,4.20
2019-06-10T15:28:57.554Z,3.60
2019-06-10T15:30:14.396Z,4.10
2019-06-10T15:31:42.287Z,4.20
2019-06-10T15:33:03.389Z,3.80
2019-06-10T15:34:17.059Z,6.20
2019-06-10T15:35:44.704Z,4.40
2019-06-10T15:36:57.055Z,4.80
2019-06-10T15:38:09.298Z,4.60
2019-06-10T15:39:27.884Z,4.60
2019-06-10T15:40:43.120Z,4.50
2019-06-10T15:41:55.912Z,4.90
2019-06-10T15:43:14.085Z,5.30
2019-06-10T15:44:45.786Z,4.70
2019-06-10T15:46:08.298Z,5.00
2019-06-10T15:47:26.217Z,8.60
2019-06-10T15:48:45.696Z,10.20
2019-06-10T15:50:02.998Z,53.70
2019-06-10T15:51:18.598Z,22.30
2019-06-10T15:52:39.587Z,32.80
2019-06-10T15:53:53.625Z,19.40
2019-06-10T15:55:05.981Z,19.80
2019-06-10T15:56:49.810Z,17.60
2019-06-10T15:58:08.060Z,15.70
2019-06-10T15:59:21.394Z,13.10
2019-06-10T16:00:44.752Z,12.60
2019-06-10T16:01:59.649Z,11.70
2019-06-10T16:03:14.255Z,12.20
2019-06-10T16:04:30.064Z,11.60
2019-06-10T16:05:47.499Z,10.80
2019-06-10T16:07:03.236Z,11.10
2019-06-10T16:08:18.533Z,9.60
2019-06-10T16:09:37.716Z,12.30
2019-06-10T16:10:53.117Z,13.40
2019-06-10T16:12:05.655Z,11.80
2019-06-10T16:13:18.584Z,11.00
2019-06-10T16:14:33.179Z,11.60
2019-06-10T16:15:58.344Z,10.30
2019-06-10T16:17:14.481Z,7.80
2019-06-10T16:18:29.610Z,7.70
2019-06-10T16:19:43.144Z,11.10
2019-06-10T16:20:55.608Z,12.20
2019-06-10T16:22:07.861Z,17.90
2019-06-10T16:23:22.969Z,14.20
2019-06-10T16:24:44.534Z,9.80
2019-06-10T16:25:59.321Z,9.40
2019-06-10T16:27:14.174Z,8.90
2019-06-10T16:28:32.666Z,10.40
2019-06-10T16:29:47.655Z,9.20
2019-06-10T16:31:02.498Z,9.50
2019-06-10T16:32:16.306Z,9.60
2019-06-10T16:33:28.615Z,10.20
2019-06-10T16:34:47.717Z,10.10
2019-06-10T16:36:02.706Z,10.40
2019-06-10T16:37:19.082Z,10.10
2019-06-10T16:38:33.464Z,9.00
2019-06-10T16:39:48.330Z,11.30
2019-06-10T16:41:03.187Z,10.40
2019-06-10T16:42:16.014Z,10.50
2019-06-10T16:43:38.506Z,10.10
2019-06-10T16:44:53.378Z,10.20
2019-06-10T16:46:05.693Z,10.10
2019-06-10T16:47:19.089Z,11.40
2019-06-10T16:48:33.870Z,9.20
2019-06-10T16:49:46.312Z,9.90
2019-06-10T16:50:58.617Z,9.60
2019-06-10T16:52:12.912Z,8.50
2019-06-10T16:53:28.777Z,9.70
2019-06-10T16:54:47.669Z,9.00
2019-06-10T16:56:00.021Z,9.20
2019-06-10T16:57:14.960Z,8.40
2019-06-10T16:58:30.272Z,10.60
2019-06-10T16:59:48.138Z,9.00
2019-06-10T17:01:03.184Z,8.30
2019-06-10T17:02:17.127Z,7.90
2019-06-10T17:03:31.268Z,8.00
2019-06-10T17:04:48.354Z,9.10
2019-06-10T17:06:03.245Z,8.30
2019-06-10T17:07:15.622Z,8.80
2019-06-10T17:08:28.463Z,8.30
2019-06-10T17:09:46.942Z,7.90
2019-06-10T17:10:59.283Z,8.80
2019-06-10T17:12:13.724Z,9.60
2019-06-10T17:13:27.139Z,9.10
2019-06-10T17:14:48.162Z,8.00
2019-06-10T17:16:03.523Z,8.10
2019-06-10T17:17:15.884Z,8.40
2019-06-10T17:18:29.873Z,8.70
2019-06-10T17:19:49.073Z,8.70
2019-06-10T17:21:04.220Z,8.30
2019-06-10T17:22:16.785Z,7.50
2019-06-10T17:23:31.375Z,7.80
2019-06-10T17:24:54.081Z,7.70
2019-06-10T17:26:06.315Z,7.60
2019-06-10T17:27:19.187Z,7.40
2019-06-10T17:28:42.779Z,7.60
2019-06-10T17:29:55.166Z,7.60
2019-06-10T17:31:07.504Z,6.40
2019-06-10T17:32:21.975Z,6.30
2019-06-10T17:33:37.555Z,6.80
2019-06-10T17:34:53.630Z,6.90
2019-06-10T17:36:05.999Z,6.60
2019-06-10T17:37:26.527Z,6.60
2019-06-10T17:38:39.024Z,5.70
2019-06-10T17:39:55.285Z,6.90
2019-06-10T17:41:07.517Z,5.80
2019-06-10T17:42:27.507Z,5.10
2019-06-10T17:43:45.881Z,5.80
2019-06-10T17:45:03.632Z,6.00
2019-06-10T17:46:16.373Z,5.00
2019-06-10T17:47:31.518Z,5.60
2019-06-10T17:48:52.162Z,4.50
2019-06-10T17:50:04.548Z,5.30
2019-06-10T17:51:22.323Z,5.30
2019-06-10T17:52:38.932Z,5.30
2019-06-10T17:53:55.664Z,4.00
2019-06-10T17:55:08.022Z,4.60
2019-06-10T17:56:24.930Z,4.70
2019-06-10T17:57:40.093Z,4.50
2019-06-10T17:59:17.920Z,4.30
2019-06-10T18:00:36.280Z,3.60
2019-06-10T18:01:52.258Z,4.10
2019-06-10T18:03:07.231Z,4.20
2019-06-10T18:04:24.005Z,3.90
2019-06-10T18:05:44.608Z,4.00
2019-06-10T18:07:52.279Z,4.00
2019-06-10T18:09:05.096Z,4.20
2019-06-10T18:10:17.545Z,3.90
2019-06-10T18:11:30.572Z,3.50
2019-06-10T18:12:48.605Z,3.50
2019-06-10T18:14:03.609Z,3.50
2019-06-10T18:15:24.206Z,3.50
2019-06-10T18:16:38.957Z,3.60
2019-06-10T18:17:56.747Z,3.70
2019-06-10T18:19:08.983Z,4.10
2019-06-10T18:20:24.406Z,3.30
2019-06-10T18:21:36.867Z,3.60
2019-06-10T18:22:49.206Z,3.70
2019-06-10T18:24:08.044Z,3.40
2019-06-10T18:25:24.546Z,3.70
2019-06-10T18:26:37.862Z,3.40
2019-06-10T18:27:55.956Z,3.00
2019-06-10T18:29:29.182Z,3.00
2019-06-10T18:30:44.089Z,3.50
2019-06-10T18:31:57.798Z,2.90
2019-06-10T18:33:13.190Z,3.00
2019-06-10T18:34:27.994Z,3.20
2019-06-10T18:35:42.764Z,3.40
2019-06-10T18:36:59.109Z,3.20
2019-06-10T18:38:13.746Z,2.60
2019-06-10T18:39:27.045Z,2.90
2019-06-10T18:40:42.831Z,2.90
2019-06-10T18:41:55.441Z,2.60
2019-06-10T18:43:18.102Z,2.70
2019-06-10T18:44:44.581Z,2.50
2019-06-10T18:46:03.217Z,2.50
2019-06-10T18:47:15.893Z,3.20
2019-06-10T18:48:28.986Z,2.30
2019-06-10T18:49:43.495Z,2.40
2019-06-10T18:51:00.083Z,2.20
2019-06-10T18:52:13.996Z,2.50
2019-06-10T18:53:26.303Z,2.30
2019-06-10T18:54:39.710Z,2.70
2019-06-10T18:56:00.745Z,2.30
2019-06-10T18:57:13.359Z,2.80
2019-06-10T18:58:25.647Z,2.50
2019-06-10T18:59:42.742Z,2.00
2019-06-10T19:01:24.474Z,2.50
2019-06-10T19:02:36.806Z,2.30
2019-06-10T19:03:49.256Z,2.20
2019-06-10T19:05:04.164Z,2.50
2019-06-10T19:06:17.211Z,2.20
2019-06-10T19:07:30.573Z,2.50
2019-06-10T19:08:45.926Z,2.50
2019-06-10T19:10:08.261Z,2.20
2019-06-10T19:11:25.758Z,2.70
2019-06-10T19:12:38.284Z,2.00
2019-06-10T19:13:59.892Z,2.30
2019-06-10T19:15:13.075Z,2.60
2019-06-10T19:16:25.873Z,2.00
2019-06-10T19:17:40.279Z,2.20
2019-06-10T19:18:56.847Z,2.10
2019-06-10T19:20:09.204Z,2.30
2019-06-10T19:21:30.004Z,2.30
2019-06-10T19:22:43.319Z,2.10
2019-06-10T19:23:58.683Z,2.70
2019-06-10T19:25:13.694Z,2.80
2019-06-10T19:26:26.429Z,2.40
2019-06-10T19:27:56.953Z,2.00
2019-06-10T19:29:09.300Z,2.30
2019-06-10T19:30:24.149Z,2.20
2019-06-10T19:31:37.910Z,2.10
2019-06-10T19:32:58.432Z,2.20
2019-06-10T19:34:15.752Z,2.10
2019-06-10T19:35:28.120Z,2.50
2019-06-10T19:36:40.354Z,2.20
2019-06-10T19:37:58.245Z,2.40
2019-06-10T19:39:12.617Z,2.10
2019-06-10T19:40:25.545Z,2.10
2019-06-10T19:41:46.744Z,2.50
2019-06-10T19:43:02.809Z,2.40
2019-06-10T19:44:18.161Z,2.40
2019-06-10T19:45:33.269Z,2.30
2019-06-10T19:46:45.567Z,2.40
2019-06-10T19:47:59.998Z,2.00
2019-06-10T19:49:27.374Z,2.40
2019-06-10T19:50:43.972Z,1.90
2019-06-10T19:52:08.630Z,2.10
2019-06-10T19:53:23.304Z,2.30
2019-06-10T19:54:36.920Z,2.30
2019-06-10T19:55:49.298Z,2.20
2019-06-10T19:57:02.725Z,2.30
2019-06-10T19:58:15.161Z,2.00
2019-06-10T19:59:27.498Z,2.40
2019-06-10T20:00:39.856Z,1.90
2019-06-10T20:01:56.479Z,2.10
2019-06-10T20:03:08.819Z,2.20
2019-06-10T20:04:23.372Z,1.90
2019-06-10T20:05:36.171Z,2.10
2019-06-10T20:06:54.240Z,2.00
2019-06-10T20:08:13.962Z,2.10
2019-06-10T20:09:26.298Z,2.20
2019-06-10T20:10:38.687Z,1.90
2019-06-10T20:11:52.966Z,2.10
2019-06-10T20:13:07.441Z,1.90
2019-06-10T20:14:19.697Z,2.20
2019-06-10T20:15:35.060Z,2.20
2019-06-10T20:16:48.103Z,2.10
2019-06-10T20:18:02.685Z,1.70
2019-06-10T20:19:17.768Z,2.10
2019-06-10T20:20:33.097Z,2.00
2019-06-10T20:21:46.621Z,1.90
2019-06-10T20:23:08.735Z,2.00
2019-06-10T20:24:23.612Z,2.40
2019-06-10T20:25:36.264Z,1.70
2019-06-10T20:26:48.725Z,1.60
2019-06-10T20:28:05.915Z,2.00
2019-06-10T20:29:22.135Z,2.30
2019-06-10T20:30:49.347Z,1.70
2019-06-10T20:32:09.168Z,2.50
2019-06-10T20:33:24.222Z,1.80
2019-06-10T20:34:44.825Z,2.00
2019-06-10T20:35:58.221Z,1.90
2019-06-10T20:37:13.022Z,1.80
2019-06-10T20:39:18.883Z,1.70
2019-06-10T20:40:32.016Z,1.80
2019-06-10T20:41:50.962Z,1.70
2019-06-10T20:43:07.754Z,1.80
2019-06-10T20:44:22.166Z,1.60
2019-06-10T20:45:34.746Z,1.90
2019-06-10T20:46:48.029Z,1.70
2019-06-10T20:48:08.898Z,1.60
2019-06-10T20:49:23.993Z,2.10
2019-06-10T20:50:36.241Z,1.80
2019-06-10T20:52:01.020Z,1.60
2019-06-10T20:53:40.060Z,1.70
2019-06-10T20:54:54.922Z,1.90
2019-06-10T20:56:20.185Z,1.80
2019-06-10T20:57:49.799Z,1.90
2019-06-10T20:59:15.258Z,2.00
2019-06-10T21:00:51.149Z,1.90
2019-06-10T21:02:13.507Z,1.80
2019-06-10T21:03:28.944Z,1.90
2019-06-10T21:04:43.670Z,1.90
2019-06-10T21:06:02.397Z,1.90
2019-06-10T21:07:17.898Z,2.10
2019-06-10T21:08:33.344Z,2.00
2019-06-10T21:09:54.103Z,1.70
2019-06-10T21:11:15.301Z,1.60
2019-06-10T21:12:33.762Z,1.80
2019-06-10T21:13:49.062Z,1.50
2019-06-10T21:15:13.901Z,1.80
2019-06-10T21:16:28.886Z,1.90
2019-06-10T21:17:45.844Z,1.80
2019-06-10T21:19:05.691Z,1.90
2019-06-10T21:20:17.937Z,1.70
2019-06-10T21:21:32.509Z,1.70
2019-06-10T21:22:45.917Z,1.80
2019-06-10T21:24:05.395Z,1.90
2019-06-10T21:25:23.060Z,2.00
2019-06-10T21:26:35.492Z,1.90
2019-06-10T21:27:48.330Z,2.00
2019-06-10T21:29:15.861Z,1.70
2019-06-10T21:30:40.807Z,1.80
2019-06-10T21:32:09.074Z,2.00
2019-06-10T21:33:24.395Z,2.10
2019-06-10T21:34:36.737Z,2.20
2019-06-10T21:35:50.153Z,1.60
2019-06-10T21:37:12.097Z,1.70
2019-06-10T21:38:24.558Z,1.40
2019-06-10T21:39:36.912Z,1.50
2019-06-10T21:40:54.239Z,1.60
2019-06-10T21:42:14.345Z,1.70
2019-06-10T21:43:33.735Z,1.60
2019-06-10T21:44:46.097Z,1.60
2019-06-10T21:45:58.334Z,1.30
2019-06-10T21:48:09.014Z,1.60
2019-06-10T21:49:23.597Z,1.50
2019-06-10T21:50:36.255Z,1.90
2019-06-10T21:51:56.458Z,1.80
2019-06-10T21:53:09.598Z,1.80
2019-06-10T21:54:23.818Z,1.60
2019-06-10T21:55:36.150Z,1.70
2019-06-10T21:56:48.893Z,1.80
2019-06-10T21:58:05.839Z,1.80
2019-06-10T21:59:18.991Z,1.50
2019-06-10T22:00:49.066Z,1.80
2019-06-10T22:02:15.642Z,1.80
2019-06-10T22:03:28.004Z,1.90
2019-06-10T22:04:43.662Z,1.60
2019-06-10T22:05:58.742Z,1.60
2019-06-10T22:07:16.770Z,1.60
2019-06-10T22:08:29.123Z,1.90
2019-06-10T22:09:44.092Z,1.60
2019-06-10T22:11:02.899Z,1.50
2019-06-10T22:12:16.590Z,1.50
2019-06-10T22:13:28.938Z,1.90
2019-06-10T22:14:44.130Z,1.60
2019-06-10T22:15:58.956Z,1.50
2019-06-10T22:17:16.838Z,1.70
2019-06-10T22:18:29.184Z,1.70
2019-06-10T22:19:44.502Z,1.70
2019-06-10T22:20:57.682Z,1.30
2019-06-10T22:22:14.130Z,1.80
2019-06-10T22:23:26.381Z,1.60
2019-06-10T22:24:38.743Z,1.70
2019-06-10T22:25:55.692Z,1.90
2019-06-10T22:27:09.993Z,1.30
2019-06-10T22:28:24.792Z,1.60
2019-06-10T22:29:37.270Z,1.50
2019-06-10T22:30:49.541Z,1.60
2019-06-10T22:32:03.633Z,1.30
2019-06-10T22:33:18.521Z,1.80
2019-06-10T22:34:33.292Z,1.90
2019-06-10T22:35:45.502Z,1.60
2019-06-10T22:36:57.850Z,1.50
2019-06-10T22:38:13.212Z,1.80
2019-06-10T22:39:25.675Z,1.60
2019-06-10T22:40:38.030Z,1.40
2019-06-10T22:41:53.274Z,1.60
2019-06-10T22:43:09.976Z,1.50
2019-06-10T22:44:24.739Z,1.40
2019-06-10T22:45:39.504Z,1.80
2019-06-10T22:46:55.614Z,1.60
2019-06-10T22:48:16.100Z,1.70
2019-06-10T22:49:28.475Z,1.70
2019-06-10T22:50:43.714Z,1.70
2019-06-10T22:51:58.085Z,1.60
2019-06-10T22:53:17.832Z,1.10
2019-06-10T22:54:32.168Z,1.60
2019-06-10T22:55:44.656Z,1.60
2019-06-10T22:56:58.299Z,1.70
2019-06-10T22:58:23.062Z,1.60
2019-06-10T22:59:36.805Z,1.40
2019-06-10T23:00:49.975Z,1.30
2019-06-10T23:02:06.341Z,1.50
2019-06-10T23:03:21.865Z,1.40
2019-06-10T23:04:34.347Z,1.60
2019-06-10T23:05:46.619Z,1.70
2019-06-10T23:07:02.827Z,1.80
2019-06-10T23:08:19.440Z,1.60
2019-06-10T23:09:33.730Z,1.50
2019-06-10T23:10:46.092Z,1.80
2019-06-10T23:11:59.189Z,1.70
2019-06-10T23:13:17.170Z,1.70
2019-06-10T23:14:29.595Z,1.80
2019-06-10T23:15:44.182Z,1.50
2019-06-10T23:16:57.090Z,1.70
2019-06-10T23:18:17.898Z,1.50
2019-06-10T23:19:30.058Z,1.30
2019-06-10T23:20:44.908Z,1.50
2019-06-10T23:21:58.088Z,1.30
2019-06-10T23:23:18.162Z,1.40
2019-06-10T23:24:34.213Z,1.50
2019-06-10T23:25:46.581Z,1.40
2019-06-10T23:26:59.790Z,1.70
2019-06-10T23:28:22.180Z,1.80
2019-06-10T23:29:37.152Z,1.70
2019-06-10T23:30:49.975Z,1.50
2019-06-10T23:32:22.156Z,1.30
2019-06-10T23:33:34.548Z,1.40
2019-06-10T23:34:49.298Z,1.60
2019-06-10T23:36:04.125Z,1.70
2019-06-10T23:37:22.414Z,1.30
2019-06-10T23:38:35.093Z,1.60
2019-06-10T23:39:47.459Z,1.70
2019-06-10T23:41:01.312Z,1.50
2019-06-10T23:42:19.943Z,1.30
2019-06-10T23:43:34.784Z,1.70
2019-06-10T23:44:54.851Z,1.30
2019-06-10T23:46:07.610Z,1.20
2019-06-10T23:47:23.840Z,1.80
2019-06-10T23:48:38.633Z,1.40
2019-06-10T23:49:55.995Z,1.30
2019-06-10T23:51:16.172Z,1.30
2019-06-10T23:52:28.547Z,1.20
2019-06-10T23:53:43.587Z,1.40
2019-06-10T23:54:55.922Z,1.60
2019-06-10T23:56:08.201Z,1.20
2019-06-10T23:57:26.989Z,1.40
2019-06-10T23:58:45.661Z,1.40
